createdAt,value
2022-10-25T00:00:01.852Z,102115.00
2022-10-25T00:02:35.901Z,102109.00
2022-10-25T00:05:13.870Z,102100.00
2022-10-25T00:07:46.956Z,102111.00
2022-10-25T00:10:22.258Z,102120.00
2022-10-25T00:12:54.633Z,102115.00
2022-10-25T00:15:27.776Z,102119.00
2022-10-25T00:18:00.692Z,102114.00
2022-10-25T00:20:33.511Z,102126.00
2022-10-25T00:23:06.513Z,102136.00
2022-10-25T00:25:39.467Z,102122.00
2022-10-25T00:28:12.175Z,102119.00
2022-10-25T00:30:44.754Z,102128.00
2022-10-25T00:33:19.100Z,102122.00
2022-10-25T00:35:51.773Z,102117.00
2022-10-25T00:38:24.688Z,102112.00
2022-10-25T00:40:57.500Z,102130.00
2022-10-25T00:43:41.330Z,102118.00
2022-10-25T00:46:19.489Z,102111.00
2022-10-25T00:48:57.253Z,102120.00
2022-10-25T00:51:43.556Z,102128.00
2022-10-25T00:54:18.553Z,102133.00
2022-10-25T00:56:53.124Z,102127.00
2022-10-25T00:59:27.985Z,102140.00
2022-10-25T01:02:00.892Z,102133.00
2022-10-25T01:04:35.210Z,102136.00
2022-10-25T01:07:07.977Z,102143.00
2022-10-25T01:09:42.717Z,102149.00
2022-10-25T01:12:15.601Z,102147.00
2022-10-25T01:14:51.189Z,102153.00
2022-10-25T01:17:43.571Z,102148.00
2022-10-25T01:20:30.107Z,102139.00
2022-10-25T01:23:22.740Z,102136.00
2022-10-25T01:25:58.509Z,102135.00
2022-10-25T01:28:45.662Z,102119.00
2022-10-25T01:31:26.449Z,102116.00
2022-10-25T01:34:06.790Z,102114.00
2022-10-25T01:37:12.098Z,102108.00
2022-10-25T01:39:46.886Z,102094.00
2022-10-25T01:42:24.722Z,102084.00
2022-10-25T01:45:14.295Z,102082.00
2022-10-25T01:47:57.775Z,102072.00
2022-10-25T01:50:35.716Z,102068.00
2022-10-25T01:53:08.321Z,102073.00
2022-10-25T01:55:49.788Z,102062.00
2022-10-25T01:58:42.591Z,102051.00
2022-10-25T02:04:29.746Z,102035.00
2022-10-25T02:07:07.444Z,102030.00
2022-10-25T02:09:45.159Z,102031.00
2022-10-25T02:12:19.776Z,102036.00
2022-10-25T02:14:54.366Z,102029.00
2022-10-25T02:17:28.783Z,102029.00
2022-10-25T02:20:06.727Z,102031.00
2022-10-25T02:22:41.154Z,102032.00
2022-10-25T02:25:15.142Z,102039.00
2022-10-25T02:27:49.661Z,102026.00
2022-10-25T02:30:22.581Z,102024.00
2022-10-25T02:32:55.774Z,102013.00
2022-10-25T02:35:28.478Z,102006.00
2022-10-25T02:38:01.012Z,102004.00
2022-10-25T02:40:34.177Z,102007.00
2022-10-25T02:43:07.027Z,101986.00
2022-10-25T02:45:39.755Z,101981.00
2022-10-25T02:48:12.739Z,101986.00
2022-10-25T02:50:45.545Z,101975.00
2022-10-25T02:53:18.215Z,101980.00
2022-10-25T02:55:50.994Z,101984.00
2022-10-25T02:58:23.798Z,101988.00
2022-10-25T03:00:56.581Z,101984.00
2022-10-25T03:03:29.743Z,101977.00
2022-10-25T03:06:02.833Z,101978.00
2022-10-25T03:08:35.621Z,101976.00
2022-10-25T03:11:09.347Z,101980.00
2022-10-25T03:13:42.043Z,101991.00
2022-10-25T03:16:15.124Z,101982.00
2022-10-25T03:18:48.160Z,101984.00
2022-10-25T03:21:21.089Z,101987.00
2022-10-25T03:23:54.001Z,101988.00
2022-10-25T03:26:26.897Z,101974.00
2022-10-25T03:28:59.538Z,101980.00
2022-10-25T03:31:32.327Z,101981.00
2022-10-25T03:34:05.053Z,101990.00
2022-10-25T03:36:37.933Z,101993.00
2022-10-25T03:39:10.962Z,101993.00
2022-10-25T03:41:43.588Z,101992.00
2022-10-25T03:44:16.620Z,102004.00
2022-10-25T03:46:49.354Z,102000.00
2022-10-25T03:49:22.195Z,102002.00
2022-10-25T03:51:57.833Z,102008.00
2022-10-25T03:54:29.410Z,102022.00
2022-10-25T03:57:02.334Z,102016.00
2022-10-25T03:59:35.156Z,102005.00
2022-10-25T04:02:07.805Z,102015.00
2022-10-25T04:04:40.542Z,102016.00
2022-10-25T04:07:13.280Z,102023.00
2022-10-25T04:09:45.977Z,102025.00
2022-10-25T04:12:18.722Z,102019.00
2022-10-25T04:14:51.418Z,102014.00
2022-10-25T04:17:24.245Z,102030.00
2022-10-25T04:19:56.990Z,102026.00
2022-10-25T04:22:29.625Z,102015.00
2022-10-25T04:25:02.150Z,102017.00
2022-10-25T04:27:34.789Z,102012.00
2022-10-25T04:30:07.572Z,102013.00
2022-10-25T04:32:40.149Z,102026.00
2022-10-25T04:35:13.322Z,102017.00
2022-10-25T04:37:46.289Z,102012.00
2022-10-25T04:40:22.585Z,102011.00
2022-10-25T04:42:53.144Z,102017.00
2022-10-25T04:45:25.831Z,102010.00
2022-10-25T04:47:58.823Z,102007.00
2022-10-25T04:50:31.689Z,102013.00
2022-10-25T04:53:04.517Z,102013.00
2022-10-25T04:55:37.282Z,102007.00
2022-10-25T04:58:09.962Z,102008.00
2022-10-25T05:00:42.702Z,101993.00
2022-10-25T05:03:15.789Z,101988.00
2022-10-25T05:05:48.396Z,101985.00
2022-10-25T05:08:21.075Z,101987.00
2022-10-25T05:10:59.618Z,101989.00
2022-10-25T05:13:33.510Z,101995.00
2022-10-25T05:16:06.749Z,101989.00
2022-10-25T05:18:39.705Z,101991.00
2022-10-25T05:21:12.999Z,102004.00
2022-10-25T05:23:50.629Z,101993.00
2022-10-25T05:26:24.375Z,101999.00
2022-10-25T05:28:58.756Z,101997.00
2022-10-25T05:31:33.114Z,101996.00
2022-10-25T05:34:06.140Z,101998.00
2022-10-25T05:36:38.759Z,102011.00
2022-10-25T05:39:11.665Z,101994.00
2022-10-25T05:41:44.684Z,101994.00
2022-10-25T05:44:18.531Z,102007.00
2022-10-25T05:46:51.259Z,101998.00
2022-10-25T05:49:23.893Z,101987.00
2022-10-25T05:52:01.045Z,101990.00
2022-10-25T05:54:34.705Z,101991.00
2022-10-25T05:57:07.633Z,101993.00
2022-10-25T05:59:40.739Z,101992.00
2022-10-25T06:02:14.173Z,101987.00
2022-10-25T06:04:51.518Z,101987.00
2022-10-25T06:07:21.074Z,102002.00
2022-10-25T06:09:54.427Z,101999.00
2022-10-25T06:12:37.116Z,102000.00
2022-10-25T06:15:11.320Z,101999.00
2022-10-25T06:17:44.427Z,101997.00
2022-10-25T06:20:17.528Z,102004.00
2022-10-25T06:22:50.548Z,102002.00
2022-10-25T06:25:23.749Z,101997.00
2022-10-25T06:27:57.052Z,102000.00
2022-10-25T06:33:03.122Z,101993.00
2022-10-25T06:35:36.267Z,102001.00
2022-10-25T06:38:09.502Z,102005.00
2022-10-25T06:40:45.288Z,102017.00
2022-10-25T06:43:18.570Z,102011.00
2022-10-25T06:45:51.913Z,102010.00
2022-10-25T06:48:25.097Z,102008.00
2022-10-25T06:51:27.458Z,102011.00
2022-10-25T06:56:50.624Z,102004.00
2022-10-25T06:59:23.754Z,102011.00
2022-10-25T07:01:57.446Z,102009.00
2022-10-25T07:04:30.702Z,102008.00
2022-10-25T07:07:03.793Z,101994.00
2022-10-25T07:09:36.632Z,102008.00
2022-10-25T07:12:12.601Z,101993.00
2022-10-25T07:14:44.039Z,102006.00
2022-10-25T07:17:17.080Z,102009.00
2022-10-25T07:19:50.041Z,101989.00
2022-10-25T07:22:23.079Z,101997.00
2022-10-25T07:24:56.080Z,101998.00
2022-10-25T07:27:29.728Z,102001.00
2022-10-25T07:30:04.791Z,101993.00
2022-10-25T07:32:41.508Z,102000.00
2022-10-25T07:35:13.215Z,102007.00
2022-10-25T07:37:46.175Z,102005.00
2022-10-25T07:40:19.260Z,102004.00
2022-10-25T07:42:53.069Z,102011.00
2022-10-25T07:45:27.640Z,102006.00
2022-10-25T07:48:00.004Z,102003.00
2022-10-25T07:50:32.868Z,102006.00
2022-10-25T07:53:05.826Z,102002.00
2022-10-25T07:55:38.990Z,102004.00
2022-10-25T07:58:13.397Z,101997.00
2022-10-25T08:00:46.527Z,101997.00
2022-10-25T08:03:20.647Z,102005.00
2022-10-25T08:05:53.570Z,102002.00
2022-10-25T08:08:27.166Z,102008.00
2022-10-25T08:11:01.432Z,102012.00
2022-10-25T08:13:34.462Z,102011.00
2022-10-25T08:16:07.649Z,102020.00
2022-10-25T08:18:40.785Z,102017.00
2022-10-25T08:21:13.738Z,102031.00
2022-10-25T08:23:48.606Z,102026.00
2022-10-25T08:29:09.506Z,102026.00
2022-10-25T08:31:42.496Z,102037.00
2022-10-25T08:34:15.498Z,102029.00
2022-10-25T08:36:48.517Z,102029.00
2022-10-25T08:39:21.629Z,102043.00
2022-10-25T08:41:59.570Z,102033.00
2022-10-25T08:44:52.847Z,102035.00
2022-10-25T08:47:32.388Z,102041.00
2022-10-25T08:50:10.571Z,102030.00
2022-10-25T08:52:58.174Z,102034.00
2022-10-25T08:55:58.763Z,102034.00
2022-10-25T08:58:29.450Z,102029.00
2022-10-25T09:01:05.317Z,102030.00
2022-10-25T09:06:30.737Z,102032.00
2022-10-25T09:09:15.918Z,102023.00
2022-10-25T09:12:02.483Z,102030.00
2022-10-25T09:14:48.890Z,102029.00
2022-10-25T09:17:25.832Z,102032.00
2022-10-25T09:20:09.768Z,102033.00
2022-10-25T09:22:53.306Z,102025.00
2022-10-25T09:25:30.718Z,102026.00
2022-10-25T09:28:05.894Z,102036.00
2022-10-25T09:30:43.797Z,102026.00
2022-10-25T09:33:19.034Z,102034.00
2022-10-25T09:35:56.471Z,102032.00
2022-10-25T09:38:34.158Z,102027.00
2022-10-25T09:41:09.146Z,102028.00
2022-10-25T09:43:43.761Z,102023.00
2022-10-25T09:46:21.882Z,102029.00
2022-10-25T09:49:11.876Z,102031.00
2022-10-25T09:51:52.691Z,102021.00
2022-10-25T09:54:28.586Z,102025.00
2022-10-25T09:57:04.262Z,102026.00
2022-10-25T09:59:37.164Z,102021.00
2022-10-25T10:02:11.789Z,102020.00
2022-10-25T10:04:45.412Z,102023.00
2022-10-25T10:07:22.799Z,102027.00
2022-10-25T10:09:57.979Z,102020.00
2022-10-25T10:12:35.510Z,102027.00
2022-10-25T10:15:10.208Z,102031.00
2022-10-25T10:17:43.139Z,102028.00
2022-10-25T10:20:20.898Z,102031.00
2022-10-25T10:22:56.296Z,102035.00
2022-10-25T10:25:33.131Z,102031.00
2022-10-25T10:28:06.041Z,102028.00
2022-10-25T10:30:39.942Z,102029.00
2022-10-25T10:33:15.970Z,102034.00
2022-10-25T10:35:53.030Z,102037.00
2022-10-25T10:38:28.248Z,102038.00
2022-10-25T10:41:03.034Z,102033.00
2022-10-25T10:43:36.775Z,102026.00
2022-10-25T10:46:11.901Z,102020.00
2022-10-25T10:48:46.415Z,102026.00
2022-10-25T10:53:55.209Z,102033.00
2022-10-25T10:56:29.716Z,102035.00
2022-10-25T10:59:02.694Z,102040.00
2022-10-25T11:01:36.619Z,102034.00
2022-10-25T11:04:09.586Z,102041.00
2022-10-25T11:06:42.371Z,102032.00
2022-10-25T11:09:21.520Z,102044.00
2022-10-25T11:12:14.574Z,102039.00
2022-10-25T11:14:47.501Z,102033.00
2022-10-25T11:17:28.411Z,102036.00
2022-10-25T11:20:06.346Z,102041.00
2022-10-25T11:22:48.692Z,102035.00
2022-10-25T11:25:27.702Z,102041.00
2022-10-25T11:28:05.454Z,102029.00
2022-10-25T11:31:13.219Z,102039.00
2022-10-25T11:34:03.256Z,102025.00
2022-10-25T11:36:55.005Z,102020.00
2022-10-25T11:39:50.682Z,102036.00
2022-10-25T11:42:36.731Z,102025.00
2022-10-25T11:45:17.897Z,102019.00
2022-10-25T11:48:05.000Z,102024.00
2022-10-25T11:50:59.635Z,102020.00
2022-10-25T11:53:37.089Z,102018.00
2022-10-25T11:56:27.034Z,102019.00
2022-10-25T11:59:26.044Z,102017.00
2022-10-25T12:02:17.618Z,102018.00
2022-10-25T12:05:15.173Z,102011.00
2022-10-25T12:08:18.560Z,102011.00
2022-10-25T12:10:56.555Z,102012.00
2022-10-25T12:13:49.829Z,102005.00
2022-10-25T12:16:24.603Z,102011.00
2022-10-25T12:19:05.571Z,102016.00
2022-10-25T12:21:40.585Z,102019.00
2022-10-25T12:24:15.759Z,102021.00
2022-10-25T12:26:50.181Z,102004.00
2022-10-25T12:29:43.520Z,102006.00
2022-10-25T12:32:24.226Z,102004.00
2022-10-25T12:34:58.463Z,102002.00
2022-10-25T12:37:44.028Z,101996.00
2022-10-25T12:43:04.994Z,101985.00
2022-10-25T12:45:43.414Z,101994.00
2022-10-25T12:48:30.593Z,101980.00
2022-10-25T12:51:18.828Z,101986.00
2022-10-25T12:54:08.224Z,101984.00
2022-10-25T12:56:52.277Z,101974.00
2022-10-25T12:59:27.329Z,101977.00
2022-10-25T13:02:04.975Z,101966.00
2022-10-25T13:04:49.448Z,101957.00
2022-10-25T13:07:24.302Z,101960.00
2022-10-25T13:09:58.530Z,101957.00
2022-10-25T13:12:32.554Z,101952.00
2022-10-25T13:15:09.205Z,101954.00
2022-10-25T13:17:47.504Z,101957.00
2022-10-25T13:20:28.777Z,101955.00
2022-10-25T13:23:01.717Z,101945.00
2022-10-25T13:25:54.690Z,101946.00
2022-10-25T13:28:36.246Z,101947.00
2022-10-25T13:31:36.144Z,101939.00
2022-10-25T13:34:20.206Z,101934.00
2022-10-25T13:36:57.260Z,101939.00
2022-10-25T13:39:41.492Z,101938.00
2022-10-25T13:42:22.898Z,101934.00
2022-10-25T13:45:03.747Z,101937.00
2022-10-25T13:47:41.416Z,101931.00
2022-10-25T13:50:19.091Z,101927.00
2022-10-25T13:53:06.003Z,101923.00
2022-10-25T13:55:41.230Z,101919.00
2022-10-25T13:58:38.406Z,101915.00
2022-10-25T14:01:23.449Z,101907.00
2022-10-25T14:04:11.497Z,101907.00
2022-10-25T14:06:45.616Z,101896.00
2022-10-25T14:09:41.894Z,101895.00
2022-10-25T14:12:20.437Z,101891.00
2022-10-25T14:15:13.298Z,101885.00
2022-10-25T14:17:50.093Z,101889.00
2022-10-25T14:20:28.091Z,101886.00
2022-10-25T14:23:07.959Z,101889.00
2022-10-25T14:25:50.140Z,101883.00
2022-10-25T14:28:27.991Z,101877.00
2022-10-25T14:31:05.688Z,101880.00
2022-10-25T14:33:41.878Z,101870.00
2022-10-25T14:36:17.585Z,101876.00
2022-10-25T14:39:04.690Z,101870.00
2022-10-25T14:41:39.390Z,101871.00
2022-10-25T14:44:27.328Z,101860.00
2022-10-25T14:47:01.341Z,101851.00
2022-10-25T14:49:34.886Z,101851.00
2022-10-25T14:52:09.802Z,101846.00
2022-10-25T14:54:43.968Z,101855.00
2022-10-25T14:57:18.546Z,101856.00
2022-10-25T15:02:36.210Z,101849.00
2022-10-25T15:05:10.474Z,101851.00
2022-10-25T15:07:48.877Z,101853.00
2022-10-25T15:10:36.875Z,101845.00
2022-10-25T15:13:27.125Z,101843.00
2022-10-25T15:16:00.736Z,101842.00
2022-10-25T15:18:36.365Z,101839.00
2022-10-25T15:21:20.600Z,101843.00
2022-10-25T15:24:11.784Z,101839.00
2022-10-25T15:27:05.014Z,101845.00
2022-10-25T15:32:38.258Z,101845.00
2022-10-25T15:35:30.291Z,101835.00
2022-10-25T15:38:06.764Z,101830.00
2022-10-25T15:46:39.809Z,101828.00
2022-10-25T15:49:24.468Z,101826.00
2022-10-25T15:52:04.193Z,101817.00
2022-10-25T15:57:35.674Z,101826.00
2022-10-25T16:00:13.516Z,101816.00
2022-10-25T16:05:40.703Z,101816.00
2022-10-25T16:08:18.088Z,101819.00
2022-10-25T16:11:11.988Z,101808.00
2022-10-25T16:13:46.300Z,101811.00
2022-10-25T16:16:40.437Z,101810.00
2022-10-25T16:19:07.891Z,101813.00
2022-10-25T16:21:48.627Z,101813.00
2022-10-25T16:24:24.116Z,101815.00
2022-10-25T16:27:03.789Z,101801.00
2022-10-25T16:29:39.068Z,101805.00
2022-10-25T16:32:14.067Z,101803.00
2022-10-25T16:34:52.510Z,101800.00
2022-10-25T16:37:24.827Z,101793.00
2022-10-25T16:40:10.073Z,101789.00
2022-10-25T16:42:46.765Z,101788.00
2022-10-25T16:45:28.776Z,101787.00
2022-10-25T16:48:08.502Z,101791.00
2022-10-25T16:50:48.213Z,101789.00
2022-10-25T16:53:26.626Z,101781.00
2022-10-25T16:56:14.449Z,101785.00
2022-10-25T16:58:48.228Z,101777.00
2022-10-25T17:01:44.567Z,101779.00
2022-10-25T17:04:18.661Z,101783.00
2022-10-25T17:09:42.799Z,101795.00
2022-10-25T17:12:26.115Z,101789.00
2022-10-25T17:15:03.126Z,101784.00
2022-10-25T17:20:40.834Z,101785.00
2022-10-25T17:23:22.329Z,101788.00
2022-10-25T17:26:09.544Z,101781.00
2022-10-25T17:28:48.832Z,101777.00
2022-10-25T17:31:28.135Z,101784.00
2022-10-25T17:34:21.439Z,101789.00
2022-10-25T17:36:43.618Z,101786.00
2022-10-25T17:39:21.568Z,101789.00
2022-10-25T17:42:05.073Z,101790.00
2022-10-25T17:44:48.552Z,101785.00
2022-10-25T17:47:33.807Z,101791.00
2022-10-25T17:50:16.113Z,101793.00
2022-10-25T17:52:46.647Z,101797.00
2022-10-25T17:58:08.848Z,101793.00
2022-10-25T18:00:44.774Z,101789.00
2022-10-25T18:03:28.609Z,101791.00
2022-10-25T18:06:11.508Z,101783.00
2022-10-25T18:08:59.002Z,101782.00
2022-10-25T18:11:41.949Z,101773.00
2022-10-25T18:14:32.309Z,101781.00
2022-10-25T18:19:55.671Z,101775.00
2022-10-25T18:22:28.603Z,101782.00
2022-10-25T18:25:01.638Z,101769.00
2022-10-25T18:27:35.087Z,101781.00
2022-10-25T18:30:09.051Z,101775.00
2022-10-25T18:32:46.520Z,101782.00
2022-10-25T18:35:22.211Z,101788.00
2022-10-25T18:37:55.677Z,101784.00
2022-10-25T18:40:28.494Z,101791.00
2022-10-25T18:43:01.374Z,101779.00
2022-10-25T18:45:34.388Z,101783.00
2022-10-25T18:48:08.302Z,101789.00
2022-10-25T18:50:42.655Z,101787.00
2022-10-25T18:53:19.623Z,101782.00
2022-10-25T18:55:55.632Z,101790.00
2022-10-25T18:58:28.479Z,101791.00
2022-10-25T19:01:02.849Z,101800.00
2022-10-25T19:03:35.863Z,101800.00
2022-10-25T19:06:13.049Z,101797.00
2022-10-25T19:08:46.544Z,101798.00
2022-10-25T19:11:19.834Z,101808.00
2022-10-25T19:13:53.940Z,101803.00
2022-10-25T19:16:27.098Z,101804.00
2022-10-25T19:18:59.946Z,101812.00
2022-10-25T19:21:32.950Z,101808.00
2022-10-25T19:24:06.435Z,101798.00
2022-10-25T19:26:39.452Z,101800.00
2022-10-25T19:29:12.801Z,101800.00
2022-10-25T19:31:45.722Z,101801.00
2022-10-25T19:34:18.669Z,101809.00
2022-10-25T19:36:53.009Z,101805.00
2022-10-25T19:39:26.005Z,101815.00
2022-10-25T19:41:58.867Z,101805.00
2022-10-25T19:44:31.668Z,101817.00
2022-10-25T19:47:04.566Z,101802.00
2022-10-25T19:49:37.417Z,101814.00
2022-10-25T19:52:10.329Z,101810.00
2022-10-25T19:54:43.333Z,101807.00
2022-10-25T19:57:16.476Z,101801.00
2022-10-25T19:59:49.499Z,101802.00
2022-10-25T20:02:22.447Z,101802.00
2022-10-25T20:04:55.486Z,101796.00
2022-10-25T20:07:28.433Z,101803.00
2022-10-25T20:10:01.340Z,101801.00
2022-10-25T20:12:34.225Z,101795.00
2022-10-25T20:15:07.202Z,101793.00
2022-10-25T20:17:40.092Z,101802.00
2022-10-25T20:20:14.123Z,101818.00
2022-10-25T20:22:46.956Z,101807.00
2022-10-25T20:25:22.334Z,101806.00
2022-10-25T20:27:54.566Z,101805.00
2022-10-25T20:30:27.776Z,101811.00
2022-10-25T20:33:00.713Z,101817.00
2022-10-25T20:35:34.861Z,101808.00
2022-10-25T20:38:15.940Z,101812.00
2022-10-25T20:40:48.894Z,101813.00
2022-10-25T20:43:22.176Z,101812.00
2022-10-25T20:45:55.241Z,101811.00
2022-10-25T20:48:32.465Z,101808.00
2022-10-25T20:51:07.726Z,101822.00
2022-10-25T20:53:40.684Z,101815.00
2022-10-25T20:56:13.788Z,101809.00
2022-10-25T20:58:46.970Z,101808.00
2022-10-25T21:01:20.204Z,101801.00
2022-10-25T21:03:53.603Z,101807.00
2022-10-25T21:06:26.564Z,101804.00
2022-10-25T21:08:59.222Z,101803.00
2022-10-25T21:11:32.156Z,101804.00
2022-10-25T21:14:04.995Z,101801.00
2022-10-25T21:16:38.044Z,101801.00
2022-10-25T21:19:11.009Z,101794.00
2022-10-25T21:21:44.030Z,101790.00
2022-10-25T21:24:16.910Z,101793.00
2022-10-25T21:26:49.902Z,101791.00
2022-10-25T21:29:22.737Z,101796.00
2022-10-25T21:31:55.639Z,101794.00
2022-10-25T21:34:29.492Z,101798.00
2022-10-25T21:37:02.435Z,101793.00
2022-10-25T21:39:35.232Z,101789.00
2022-10-25T21:42:08.270Z,101794.00
2022-10-25T21:44:41.263Z,101793.00
2022-10-25T21:47:14.289Z,101801.00
2022-10-25T21:49:47.124Z,101792.00
2022-10-25T21:52:19.968Z,101799.00
2022-10-25T21:54:52.695Z,101788.00
2022-10-25T21:57:25.530Z,101782.00
2022-10-25T21:59:58.439Z,101778.00
2022-10-25T22:02:31.371Z,101781.00
2022-10-25T22:05:04.524Z,101770.00
2022-10-25T22:07:37.474Z,101767.00
2022-10-25T22:10:11.209Z,101770.00
2022-10-25T22:12:44.269Z,101760.00
2022-10-25T22:15:17.018Z,101768.00
2022-10-25T22:17:50.300Z,101767.00
2022-10-25T22:20:27.373Z,101766.00
2022-10-25T22:23:00.236Z,101766.00
2022-10-25T22:25:33.062Z,101773.00
2022-10-25T22:28:06.337Z,101770.00
2022-10-25T22:30:39.355Z,101768.00
2022-10-25T22:33:12.426Z,101762.00
2022-10-25T22:35:45.081Z,101760.00
2022-10-25T22:38:17.931Z,101762.00
2022-10-25T22:41:01.010Z,101759.00
2022-10-25T22:43:34.022Z,101757.00
2022-10-25T22:46:08.134Z,101748.00
2022-10-25T22:48:43.096Z,101740.00
2022-10-25T22:51:16.749Z,101741.00
2022-10-25T22:53:49.595Z,101741.00
2022-10-25T22:56:27.404Z,101736.00
2022-10-25T22:59:19.791Z,101729.00
2022-10-25T23:01:53.144Z,101723.00
2022-10-25T23:04:28.402Z,101727.00
2022-10-25T23:07:01.208Z,101730.00
2022-10-25T23:09:34.162Z,101735.00
2022-10-25T23:12:07.302Z,101721.00
2022-10-25T23:14:40.167Z,101726.00
2022-10-25T23:17:13.069Z,101724.00
2022-10-25T23:19:45.958Z,101725.00
2022-10-25T23:22:18.900Z,101714.00
2022-10-25T23:24:51.864Z,101720.00
2022-10-25T23:27:24.769Z,101719.00
2022-10-25T23:29:57.440Z,101721.00
2022-10-25T23:32:30.488Z,101717.00
2022-10-25T23:35:03.350Z,101711.00
2022-10-25T23:37:36.303Z,101707.00
2022-10-25T23:40:09.806Z,101712.00
2022-10-25T23:45:16.286Z,101712.00
2022-10-25T23:47:49.324Z,101706.00
2022-10-25T23:50:22.204Z,101696.00
2022-10-25T23:52:55.070Z,101697.00
2022-10-25T23:55:28.085Z,101693.00
2022-10-25T23:58:04.240Z,101690.00
